sensor_id;sensor_type;location;lat;lon;timestamp;P1;durP1;ratioP1;P2;durP2;ratioP2
28431;SDS011;15664;51.302;7.744;2022-08-21T00:01:20;10.67;;;5.03;;
28431;SDS011;15664;51.302;7.744;2022-08-21T00:03:46;10.13;;;4.95;;
28431;SDS011;15664;51.302;7.744;2022-08-21T00:06:12;9.13;;;5.22;;
28431;SDS011;15664;51.302;7.744;2022-08-21T00:08:38;14.00;;;5.17;;
28431;SDS011;15664;51.302;7.744;2022-08-21T00:11:03;12.00;;;5.07;;
28431;SDS011;15664;51.302;7.744;2022-08-21T00:13:29;11.20;;;4.93;;
28431;SDS011;15664;51.302;7.744;2022-08-21T00:15:54;11.33;;;5.17;;
28431;SDS011;15664;51.302;7.744;2022-08-21T00:18:19;12.03;;;4.83;;
28431;SDS011;15664;51.302;7.744;2022-08-21T00:20:46;16.40;;;5.07;;
28431;SDS011;15664;51.302;7.744;2022-08-21T00:23:11;14.57;;;5.03;;
28431;SDS011;15664;51.302;7.744;2022-08-21T00:25:37;12.97;;;5.30;;
28431;SDS011;15664;51.302;7.744;2022-08-21T00:28:03;9.70;;;4.90;;
28431;SDS011;15664;51.302;7.744;2022-08-21T00:30:28;11.43;;;4.65;;
28431;SDS011;15664;51.302;7.744;2022-08-21T00:32:54;12.13;;;5.10;;
28431;SDS011;15664;51.302;7.744;2022-08-21T00:35:21;10.63;;;5.20;;
28431;SDS011;15664;51.302;7.744;2022-08-21T00:37:47;10.52;;;5.13;;
28431;SDS011;15664;51.302;7.744;2022-08-21T00:40:14;12.40;;;5.20;;
28431;SDS011;15664;51.302;7.744;2022-08-21T00:42:40;9.75;;;5.55;;
28431;SDS011;15664;51.302;7.744;2022-08-21T00:45:05;8.87;;;5.20;;
28431;SDS011;15664;51.302;7.744;2022-08-21T00:47:31;11.77;;;5.67;;
28431;SDS011;15664;51.302;7.744;2022-08-21T00:49:56;12.73;;;5.47;;
28431;SDS011;15664;51.302;7.744;2022-08-21T00:52:24;12.95;;;5.18;;
28431;SDS011;15664;51.302;7.744;2022-08-21T00:54:50;12.80;;;4.60;;
28431;SDS011;15664;51.302;7.744;2022-08-21T00:57:17;13.83;;;5.00;;
28431;SDS011;15664;51.302;7.744;2022-08-21T00:59:44;13.85;;;5.05;;
28431;SDS011;15664;51.302;7.744;2022-08-21T01:02:10;14.43;;;4.97;;
28431;SDS011;15664;51.302;7.744;2022-08-21T01:04:35;10.27;;;4.97;;
28431;SDS011;15664;51.302;7.744;2022-08-21T01:07:01;14.93;;;4.80;;
28431;SDS011;15664;51.302;7.744;2022-08-21T01:09:26;9.35;;;4.90;;
28431;SDS011;15664;51.302;7.744;2022-08-21T01:11:52;14.97;;;5.50;;
28431;SDS011;15664;51.302;7.744;2022-08-21T01:14:17;15.13;;;5.47;;
28431;SDS011;15664;51.302;7.744;2022-08-21T01:16:45;13.98;;;5.35;;
28431;SDS011;15664;51.302;7.744;2022-08-21T01:19:11;10.55;;;5.32;;
28431;SDS011;15664;51.302;7.744;2022-08-21T01:21:36;13.87;;;4.90;;
28431;SDS011;15664;51.302;7.744;2022-08-21T01:24:02;11.80;;;5.33;;
28431;SDS011;15664;51.302;7.744;2022-08-21T01:26:29;11.80;;;5.30;;
28431;SDS011;15664;51.302;7.744;2022-08-21T01:31:32;10.88;;;4.35;;
28431;SDS011;15664;51.302;7.744;2022-08-21T01:33:58;13.77;;;4.80;;
28431;SDS011;15664;51.302;7.744;2022-08-21T01:36:24;12.00;;;4.47;;
28431;SDS011;15664;51.302;7.744;2022-08-21T01:38:50;12.30;;;5.13;;
28431;SDS011;15664;51.302;7.744;2022-08-21T01:41:15;11.13;;;5.13;;
28431;SDS011;15664;51.302;7.744;2022-08-21T01:43:41;12.10;;;5.37;;
28431;SDS011;15664;51.302;7.744;2022-08-21T01:46:07;13.45;;;5.13;;
28431;SDS011;15664;51.302;7.744;2022-08-21T01:48:32;11.27;;;5.37;;
28431;SDS011;15664;51.302;7.744;2022-08-21T01:50:57;10.07;;;5.37;;
28431;SDS011;15664;51.302;7.744;2022-08-21T01:53:22;18.23;;;5.33;;
28431;SDS011;15664;51.302;7.744;2022-08-21T01:55:48;12.17;;;5.73;;
28431;SDS011;15664;51.302;7.744;2022-08-21T01:58:13;11.53;;;5.60;;
28431;SDS011;15664;51.302;7.744;2022-08-21T02:00:38;11.63;;;5.20;;
28431;SDS011;15664;51.302;7.744;2022-08-21T02:03:03;10.90;;;5.60;;
28431;SDS011;15664;51.302;7.744;2022-08-21T02:05:29;11.97;;;5.33;;
28431;SDS011;15664;51.302;7.744;2022-08-21T02:07:54;10.10;;;4.83;;
28431;SDS011;15664;51.302;7.744;2022-08-21T02:10:23;10.50;;;5.03;;
28431;SDS011;15664;51.302;7.744;2022-08-21T02:12:49;9.90;;;5.00;;
28431;SDS011;15664;51.302;7.744;2022-08-21T02:15:14;11.77;;;5.17;;
28431;SDS011;15664;51.302;7.744;2022-08-21T02:17:44;13.68;;;5.50;;
28431;SDS011;15664;51.302;7.744;2022-08-21T02:20:11;12.65;;;5.28;;
28431;SDS011;15664;51.302;7.744;2022-08-21T02:22:36;12.17;;;5.40;;
28431;SDS011;15664;51.302;7.744;2022-08-21T02:25:02;13.00;;;5.45;;
28431;SDS011;15664;51.302;7.744;2022-08-21T02:27:27;10.27;;;5.37;;
28431;SDS011;15664;51.302;7.744;2022-08-21T02:29:56;13.73;;;4.87;;
28431;SDS011;15664;51.302;7.744;2022-08-21T02:32:22;12.68;;;5.28;;
28431;SDS011;15664;51.302;7.744;2022-08-21T02:34:47;15.43;;;5.00;;
28431;SDS011;15664;51.302;7.744;2022-08-21T02:37:12;13.97;;;5.27;;
28431;SDS011;15664;51.302;7.744;2022-08-21T02:39:37;11.87;;;5.10;;
28431;SDS011;15664;51.302;7.744;2022-08-21T02:42:03;9.63;;;4.57;;
28431;SDS011;15664;51.302;7.744;2022-08-21T02:44:28;12.37;;;4.80;;
28431;SDS011;15664;51.302;7.744;2022-08-21T02:46:53;14.97;;;4.90;;
28431;SDS011;15664;51.302;7.744;2022-08-21T02:49:18;11.57;;;5.17;;
28431;SDS011;15664;51.302;7.744;2022-08-21T02:51:44;14.70;;;5.30;;
28431;SDS011;15664;51.302;7.744;2022-08-21T02:54:09;11.50;;;5.43;;
28431;SDS011;15664;51.302;7.744;2022-08-21T02:56:34;11.17;;;4.80;;
28431;SDS011;15664;51.302;7.744;2022-08-21T02:58:59;11.80;;;5.10;;
28431;SDS011;15664;51.302;7.744;2022-08-21T03:01:25;12.90;;;5.10;;
28431;SDS011;15664;51.302;7.744;2022-08-21T03:03:51;16.67;;;6.20;;
28431;SDS011;15664;51.302;7.744;2022-08-21T03:06:17;10.37;;;5.30;;
28431;SDS011;15664;51.302;7.744;2022-08-21T03:08:44;10.77;;;5.40;;
28431;SDS011;15664;51.302;7.744;2022-08-21T03:11:10;11.27;;;5.15;;
28431;SDS011;15664;51.302;7.744;2022-08-21T03:13:35;9.63;;;4.90;;
28431;SDS011;15664;51.302;7.744;2022-08-21T03:16:01;10.07;;;4.73;;
28431;SDS011;15664;51.302;7.744;2022-08-21T03:18:26;13.77;;;5.13;;
28431;SDS011;15664;51.302;7.744;2022-08-21T03:20:51;10.70;;;5.27;;
28431;SDS011;15664;51.302;7.744;2022-08-21T03:23:17;13.27;;;5.30;;
28431;SDS011;15664;51.302;7.744;2022-08-21T03:25:43;13.73;;;5.53;;
28431;SDS011;15664;51.302;7.744;2022-08-21T03:28:10;12.52;;;5.15;;
28431;SDS011;15664;51.302;7.744;2022-08-21T03:30:35;14.27;;;5.65;;
28431;SDS011;15664;51.302;7.744;2022-08-21T03:33:01;13.87;;;5.93;;
28431;SDS011;15664;51.302;7.744;2022-08-21T03:35:27;10.50;;;5.00;;
28431;SDS011;15664;51.302;7.744;2022-08-21T03:37:53;14.10;;;5.77;;
28431;SDS011;15664;51.302;7.744;2022-08-21T03:40:18;12.10;;;5.28;;
28431;SDS011;15664;51.302;7.744;2022-08-21T03:42:45;9.70;;;4.80;;
28431;SDS011;15664;51.302;7.744;2022-08-21T03:45:12;11.07;;;5.30;;
28431;SDS011;15664;51.302;7.744;2022-08-21T03:47:38;11.80;;;5.43;;
28431;SDS011;15664;51.302;7.744;2022-08-21T03:50:03;10.93;;;5.00;;
28431;SDS011;15664;51.302;7.744;2022-08-21T03:52:29;13.50;;;5.53;;
28431;SDS011;15664;51.302;7.744;2022-08-21T03:54:55;10.07;;;5.03;;
28431;SDS011;15664;51.302;7.744;2022-08-21T03:57:20;13.23;;;5.33;;
28431;SDS011;15664;51.302;7.744;2022-08-21T03:59:46;15.60;;;5.07;;
28431;SDS011;15664;51.302;7.744;2022-08-21T04:02:20;12.90;;;5.23;;
28431;SDS011;15664;51.302;7.744;2022-08-21T04:04:46;11.80;;;4.97;;
28431;SDS011;15664;51.302;7.744;2022-08-21T04:07:11;10.50;;;5.10;;
28431;SDS011;15664;51.302;7.744;2022-08-21T04:09:36;10.40;;;4.67;;
28431;SDS011;15664;51.302;7.744;2022-08-21T04:12:02;11.23;;;4.73;;
28431;SDS011;15664;51.302;7.744;2022-08-21T04:14:28;10.60;;;4.93;;
28431;SDS011;15664;51.302;7.744;2022-08-21T04:16:53;11.47;;;5.20;;
28431;SDS011;15664;51.302;7.744;2022-08-21T04:19:23;10.57;;;5.15;;
28431;SDS011;15664;51.302;7.744;2022-08-21T04:21:48;13.33;;;4.97;;
28431;SDS011;15664;51.302;7.744;2022-08-21T04:24:14;11.97;;;5.60;;
28431;SDS011;15664;51.302;7.744;2022-08-21T04:26:39;12.17;;;5.47;;
28431;SDS011;15664;51.302;7.744;2022-08-21T04:29:05;12.17;;;5.57;;
28431;SDS011;15664;51.302;7.744;2022-08-21T04:31:31;11.50;;;5.25;;
28431;SDS011;15664;51.302;7.744;2022-08-21T04:33:57;13.50;;;6.07;;
28431;SDS011;15664;51.302;7.744;2022-08-21T04:36:22;14.13;;;5.97;;
28431;SDS011;15664;51.302;7.744;2022-08-21T04:38:48;13.88;;;6.13;;
28431;SDS011;15664;51.302;7.744;2022-08-21T04:41:13;13.97;;;6.23;;
28431;SDS011;15664;51.302;7.744;2022-08-21T04:43:39;17.77;;;6.17;;
28431;SDS011;15664;51.302;7.744;2022-08-21T04:46:04;12.88;;;5.80;;
28431;SDS011;15664;51.302;7.744;2022-08-21T04:48:30;12.43;;;5.83;;
28431;SDS011;15664;51.302;7.744;2022-08-21T04:50:57;14.15;;;6.25;;
28431;SDS011;15664;51.302;7.744;2022-08-21T04:53:36;13.47;;;6.33;;
28431;SDS011;15664;51.302;7.744;2022-08-21T04:56:08;13.70;;;6.35;;
28431;SDS011;15664;51.302;7.744;2022-08-21T04:58:35;12.85;;;5.90;;
28431;SDS011;15664;51.302;7.744;2022-08-21T05:01:01;13.27;;;6.22;;
28431;SDS011;15664;51.302;7.744;2022-08-21T05:03:27;14.05;;;7.43;;
28431;SDS011;15664;51.302;7.744;2022-08-21T05:05:53;16.48;;;8.02;;
28431;SDS011;15664;51.302;7.744;2022-08-21T05:08:19;15.17;;;7.80;;
28431;SDS011;15664;51.302;7.744;2022-08-21T05:10:45;13.23;;;7.25;;
28431;SDS011;15664;51.302;7.744;2022-08-21T05:13:11;15.60;;;7.57;;
28431;SDS011;15664;51.302;7.744;2022-08-21T05:15:37;15.07;;;7.22;;
28431;SDS011;15664;51.302;7.744;2022-08-21T05:18:03;16.55;;;7.00;;
28431;SDS011;15664;51.302;7.744;2022-08-21T05:20:28;13.23;;;6.40;;
28431;SDS011;15664;51.302;7.744;2022-08-21T05:22:53;13.73;;;6.87;;
28431;SDS011;15664;51.302;7.744;2022-08-21T05:25:19;14.07;;;6.27;;
28431;SDS011;15664;51.302;7.744;2022-08-21T05:27:44;15.35;;;6.10;;
28431;SDS011;15664;51.302;7.744;2022-08-21T05:30:10;12.90;;;5.93;;
28431;SDS011;15664;51.302;7.744;2022-08-21T05:32:35;16.47;;;5.77;;
28431;SDS011;15664;51.302;7.744;2022-08-21T05:35:01;15.97;;;6.10;;
28431;SDS011;15664;51.302;7.744;2022-08-21T05:37:27;10.95;;;4.85;;
28431;SDS011;15664;51.302;7.744;2022-08-21T05:39:52;12.37;;;5.50;;
28431;SDS011;15664;51.302;7.744;2022-08-21T05:42:17;10.27;;;5.47;;
28431;SDS011;15664;51.302;7.744;2022-08-21T05:44:42;12.63;;;5.53;;
28431;SDS011;15664;51.302;7.744;2022-08-21T05:47:08;9.20;;;4.90;;
28431;SDS011;15664;51.302;7.744;2022-08-21T05:49:34;10.45;;;5.03;;
28431;SDS011;15664;51.302;7.744;2022-08-21T05:51:59;10.20;;;5.00;;
28431;SDS011;15664;51.302;7.744;2022-08-21T05:54:25;10.90;;;5.33;;
28431;SDS011;15664;51.302;7.744;2022-08-21T05:56:50;11.67;;;5.20;;
28431;SDS011;15664;51.302;7.744;2022-08-21T05:59:15;13.93;;;5.57;;
28431;SDS011;15664;51.302;7.744;2022-08-21T06:01:41;11.85;;;4.95;;
28431;SDS011;15664;51.302;7.744;2022-08-21T06:04:06;9.05;;;4.22;;
28431;SDS011;15664;51.302;7.744;2022-08-21T06:06:32;13.33;;;4.43;;
28431;SDS011;15664;51.302;7.744;2022-08-21T06:08:57;13.40;;;4.70;;
28431;SDS011;15664;51.302;7.744;2022-08-21T06:11:22;11.57;;;4.10;;
28431;SDS011;15664;51.302;7.744;2022-08-21T06:13:47;13.20;;;4.50;;
28431;SDS011;15664;51.302;7.744;2022-08-21T06:16:13;11.10;;;4.60;;
28431;SDS011;15664;51.302;7.744;2022-08-21T06:18:40;11.13;;;4.68;;
28431;SDS011;15664;51.302;7.744;2022-08-21T06:21:05;10.68;;;4.80;;
28431;SDS011;15664;51.302;7.744;2022-08-21T06:23:31;10.27;;;4.37;;
28431;SDS011;15664;51.302;7.744;2022-08-21T06:25:57;10.57;;;4.63;;
28431;SDS011;15664;51.302;7.744;2022-08-21T06:28:22;11.93;;;4.17;;
28431;SDS011;15664;51.302;7.744;2022-08-21T06:30:48;11.20;;;4.10;;
28431;SDS011;15664;51.302;7.744;2022-08-21T06:33:13;11.67;;;4.30;;
28431;SDS011;15664;51.302;7.744;2022-08-21T06:35:39;9.82;;;4.43;;
28431;SDS011;15664;51.302;7.744;2022-08-21T06:38:04;11.87;;;4.40;;
28431;SDS011;15664;51.302;7.744;2022-08-21T06:40:30;9.70;;;4.30;;
28431;SDS011;15664;51.302;7.744;2022-08-21T06:42:56;9.25;;;4.15;;
28431;SDS011;15664;51.302;7.744;2022-08-21T06:45:22;14.33;;;4.77;;
28431;SDS011;15664;51.302;7.744;2022-08-21T06:47:47;9.68;;;4.03;;
28431;SDS011;15664;51.302;7.744;2022-08-21T06:50:12;10.50;;;4.40;;
28431;SDS011;15664;51.302;7.744;2022-08-21T06:52:38;12.55;;;4.82;;
28431;SDS011;15664;51.302;7.744;2022-08-21T06:55:07;10.17;;;4.50;;
28431;SDS011;15664;51.302;7.744;2022-08-21T06:57:33;9.18;;;4.07;;
28431;SDS011;15664;51.302;7.744;2022-08-21T06:59:58;11.37;;;5.00;;
28431;SDS011;15664;51.302;7.744;2022-08-21T07:02:23;11.37;;;5.13;;
28431;SDS011;15664;51.302;7.744;2022-08-21T07:04:48;11.97;;;5.17;;
28431;SDS011;15664;51.302;7.744;2022-08-21T07:07:14;11.50;;;5.57;;
28431;SDS011;15664;51.302;7.744;2022-08-21T07:09:39;10.03;;;5.17;;
28431;SDS011;15664;51.302;7.744;2022-08-21T07:12:05;11.25;;;5.30;;
28431;SDS011;15664;51.302;7.744;2022-08-21T07:14:30;11.07;;;5.03;;
28431;SDS011;15664;51.302;7.744;2022-08-21T07:16:55;11.47;;;5.23;;
28431;SDS011;15664;51.302;7.744;2022-08-21T07:19:20;11.17;;;5.27;;
28431;SDS011;15664;51.302;7.744;2022-08-21T07:21:46;10.67;;;4.93;;
28431;SDS011;15664;51.302;7.744;2022-08-21T07:24:11;10.23;;;5.07;;
28431;SDS011;15664;51.302;7.744;2022-08-21T07:26:37;11.60;;;4.90;;
28431;SDS011;15664;51.302;7.744;2022-08-21T07:29:03;10.90;;;5.22;;
28431;SDS011;15664;51.302;7.744;2022-08-21T07:31:28;10.95;;;4.82;;
28431;SDS011;15664;51.302;7.744;2022-08-21T07:33:54;11.10;;;4.90;;
28431;SDS011;15664;51.302;7.744;2022-08-21T07:36:19;9.50;;;4.90;;
28431;SDS011;15664;51.302;7.744;2022-08-21T07:38:44;9.00;;;4.73;;
28431;SDS011;15664;51.302;7.744;2022-08-21T07:41:14;10.20;;;4.88;;
28431;SDS011;15664;51.302;7.744;2022-08-21T07:43:40;10.65;;;4.10;;
28431;SDS011;15664;51.302;7.744;2022-08-21T07:46:05;11.30;;;4.77;;
28431;SDS011;15664;51.302;7.744;2022-08-21T07:48:30;9.63;;;4.70;;
28431;SDS011;15664;51.302;7.744;2022-08-21T07:50:56;8.83;;;4.50;;
28431;SDS011;15664;51.302;7.744;2022-08-21T07:53:21;11.83;;;4.50;;
28431;SDS011;15664;51.302;7.744;2022-08-21T07:55:47;9.50;;;4.20;;
28431;SDS011;15664;51.302;7.744;2022-08-21T07:58:12;11.13;;;4.25;;
28431;SDS011;15664;51.302;7.744;2022-08-21T08:00:37;8.97;;;4.27;;
28431;SDS011;15664;51.302;7.744;2022-08-21T08:03:04;11.03;;;4.67;;
28431;SDS011;15664;51.302;7.744;2022-08-21T08:05:29;9.93;;;4.30;;
28431;SDS011;15664;51.302;7.744;2022-08-21T08:07:55;8.40;;;4.15;;
28431;SDS011;15664;51.302;7.744;2022-08-21T08:10:20;9.53;;;4.30;;
28431;SDS011;15664;51.302;7.744;2022-08-21T08:12:45;11.63;;;4.13;;
28431;SDS011;15664;51.302;7.744;2022-08-21T08:15:13;12.70;;;4.10;;
28431;SDS011;15664;51.302;7.744;2022-08-21T08:17:39;7.20;;;3.97;;
28431;SDS011;15664;51.302;7.744;2022-08-21T08:20:05;10.03;;;4.10;;
28431;SDS011;15664;51.302;7.744;2022-08-21T08:22:30;9.07;;;3.42;;
28431;SDS011;15664;51.302;7.744;2022-08-21T08:24:55;10.03;;;3.83;;
28431;SDS011;15664;51.302;7.744;2022-08-21T08:27:21;10.15;;;3.88;;
28431;SDS011;15664;51.302;7.744;2022-08-21T08:29:47;8.27;;;3.50;;
28431;SDS011;15664;51.302;7.744;2022-08-21T08:32:12;7.67;;;2.93;;
28431;SDS011;15664;51.302;7.744;2022-08-21T08:34:38;9.53;;;2.60;;
28431;SDS011;15664;51.302;7.744;2022-08-21T08:37:04;6.22;;;2.35;;
28431;SDS011;15664;51.302;7.744;2022-08-21T08:39:30;6.53;;;2.08;;
28431;SDS011;15664;51.302;7.744;2022-08-21T08:42:00;6.47;;;2.10;;
28431;SDS011;15664;51.302;7.744;2022-08-21T08:44:28;10.07;;;2.90;;
28431;SDS011;15664;51.302;7.744;2022-08-21T08:46:54;6.53;;;2.70;;
28431;SDS011;15664;51.302;7.744;2022-08-21T08:49:29;11.77;;;3.00;;
28431;SDS011;15664;51.302;7.744;2022-08-21T08:52:02;8.82;;;2.95;;
28431;SDS011;15664;51.302;7.744;2022-08-21T08:54:33;7.07;;;3.30;;
28431;SDS011;15664;51.302;7.744;2022-08-21T08:57:00;8.43;;;2.80;;
28431;SDS011;15664;51.302;7.744;2022-08-21T08:59:27;10.68;;;2.70;;
28431;SDS011;15664;51.302;7.744;2022-08-21T09:01:56;9.80;;;2.88;;
28431;SDS011;15664;51.302;7.744;2022-08-21T09:04:26;9.37;;;2.70;;
28431;SDS011;15664;51.302;7.744;2022-08-21T09:09:34;9.90;;;3.80;;
28431;SDS011;15664;51.302;7.744;2022-08-21T09:12:09;8.70;;;2.45;;
28431;SDS011;15664;51.302;7.744;2022-08-21T09:22:29;8.30;;;2.80;;
28431;SDS011;15664;51.302;7.744;2022-08-21T09:27:41;9.00;;;2.88;;
28431;SDS011;15664;51.302;7.744;2022-08-21T09:30:07;10.80;;;2.80;;
28431;SDS011;15664;51.302;7.744;2022-08-21T09:32:33;8.70;;;3.10;;
28431;SDS011;15664;51.302;7.744;2022-08-21T09:35:15;7.50;;;3.10;;
28431;SDS011;15664;51.302;7.744;2022-08-21T09:38:01;8.93;;;2.90;;
28431;SDS011;15664;51.302;7.744;2022-08-21T09:42:56;8.88;;;3.58;;
28431;SDS011;15664;51.302;7.744;2022-08-21T09:45:21;8.80;;;3.67;;
28431;SDS011;15664;51.302;7.744;2022-08-21T09:47:47;8.30;;;3.67;;
28431;SDS011;15664;51.302;7.744;2022-08-21T09:50:14;5.90;;;3.00;;
28431;SDS011;15664;51.302;7.744;2022-08-21T09:52:43;7.32;;;3.58;;
28431;SDS011;15664;51.302;7.744;2022-08-21T09:55:13;7.32;;;3.40;;
28431;SDS011;15664;51.302;7.744;2022-08-21T09:58:00;7.45;;;3.50;;
28431;SDS011;15664;51.302;7.744;2022-08-21T10:00:30;10.43;;;4.22;;
28431;SDS011;15664;51.302;7.744;2022-08-21T10:03:16;9.25;;;3.80;;
28431;SDS011;15664;51.302;7.744;2022-08-21T10:05:50;7.05;;;3.70;;
28431;SDS011;15664;51.302;7.744;2022-08-21T10:08:17;10.75;;;4.03;;
28431;SDS011;15664;51.302;7.744;2022-08-21T10:10:42;6.90;;;3.92;;
28431;SDS011;15664;51.302;7.744;2022-08-21T10:18:13;9.77;;;4.30;;
28431;SDS011;15664;51.302;7.744;2022-08-21T10:20:41;8.48;;;3.45;;
28431;SDS011;15664;51.302;7.744;2022-08-21T10:23:29;9.43;;;3.90;;
28431;SDS011;15664;51.302;7.744;2022-08-21T10:26:00;7.22;;;3.28;;
28431;SDS011;15664;51.302;7.744;2022-08-21T10:28:30;9.25;;;3.75;;
28431;SDS011;15664;51.302;7.744;2022-08-21T10:31:00;8.88;;;3.80;;
28431;SDS011;15664;51.302;7.744;2022-08-21T10:38:34;7.43;;;3.33;;
28431;SDS011;15664;51.302;7.744;2022-08-21T10:51:44;9.90;;;2.92;;
28431;SDS011;15664;51.302;7.744;2022-08-21T10:56:30;6.90;;;2.50;;
28431;SDS011;15664;51.302;7.744;2022-08-21T11:01:28;8.80;;;2.40;;
28431;SDS011;15664;51.302;7.744;2022-08-21T11:04:09;6.07;;;2.33;;
28431;SDS011;15664;51.302;7.744;2022-08-21T11:06:35;6.97;;;2.10;;
28431;SDS011;15664;51.302;7.744;2022-08-21T11:09:22;7.18;;;2.40;;
28431;SDS011;15664;51.302;7.744;2022-08-21T11:11:56;6.57;;;2.20;;
28431;SDS011;15664;51.302;7.744;2022-08-21T11:14:34;3.35;;;1.60;;
28431;SDS011;15664;51.302;7.744;2022-08-21T11:17:11;5.82;;;2.15;;
28431;SDS011;15664;51.302;7.744;2022-08-21T11:19:39;6.67;;;1.90;;
28431;SDS011;15664;51.302;7.744;2022-08-21T11:22:15;5.88;;;2.10;;
28431;SDS011;15664;51.302;7.744;2022-08-21T11:27:13;6.20;;;2.00;;
28431;SDS011;15664;51.302;7.744;2022-08-21T11:29:41;5.20;;;1.98;;
28431;SDS011;15664;51.302;7.744;2022-08-21T11:40:23;8.85;;;1.80;;
28431;SDS011;15664;51.302;7.744;2022-08-21T11:43:00;7.20;;;2.03;;
28431;SDS011;15664;51.302;7.744;2022-08-21T11:47:58;7.05;;;1.73;;
28431;SDS011;15664;51.302;7.744;2022-08-21T11:50:28;6.85;;;2.10;;
28431;SDS011;15664;51.302;7.744;2022-08-21T11:55:36;7.17;;;1.93;;
28431;SDS011;15664;51.302;7.744;2022-08-21T12:00:30;5.80;;;1.80;;
28431;SDS011;15664;51.302;7.744;2022-08-21T12:03:08;5.50;;;2.00;;
28431;SDS011;15664;51.302;7.744;2022-08-21T12:05:35;5.80;;;1.67;;
28431;SDS011;15664;51.302;7.744;2022-08-21T12:08:10;5.25;;;1.45;;
28431;SDS011;15664;51.302;7.744;2022-08-21T12:10:37;3.75;;;1.48;;
28431;SDS011;15664;51.302;7.744;2022-08-21T12:13:26;5.03;;;1.67;;
28431;SDS011;15664;51.302;7.744;2022-08-21T12:15:51;4.28;;;2.00;;
28431;SDS011;15664;51.302;7.744;2022-08-21T12:23:30;6.93;;;1.70;;
28431;SDS011;15664;51.302;7.744;2022-08-21T12:28:27;4.32;;;1.52;;
28431;SDS011;15664;51.302;7.744;2022-08-21T12:30:53;3.70;;;1.67;;
28431;SDS011;15664;51.302;7.744;2022-08-21T12:33:26;4.63;;;1.60;;
28431;SDS011;15664;51.302;7.744;2022-08-21T12:35:53;3.72;;;1.67;;
28431;SDS011;15664;51.302;7.744;2022-08-21T12:38:29;3.35;;;1.27;;
28431;SDS011;15664;51.302;7.744;2022-08-21T12:40:58;3.17;;;1.40;;
28431;SDS011;15664;51.302;7.744;2022-08-21T12:43:35;3.42;;;1.60;;
28431;SDS011;15664;51.302;7.744;2022-08-21T12:46:02;5.25;;;1.52;;
28431;SDS011;15664;51.302;7.744;2022-08-21T12:48:44;4.53;;;1.60;;
28431;SDS011;15664;51.302;7.744;2022-08-21T12:51:13;3.47;;;1.48;;
28431;SDS011;15664;51.302;7.744;2022-08-21T12:53:47;5.03;;;1.73;;
28431;SDS011;15664;51.302;7.744;2022-08-21T12:56:14;4.43;;;1.70;;
28431;SDS011;15664;51.302;7.744;2022-08-21T12:58:40;4.22;;;1.70;;
28431;SDS011;15664;51.302;7.744;2022-08-21T13:01:13;5.03;;;1.60;;
28431;SDS011;15664;51.302;7.744;2022-08-21T13:03:41;6.82;;;1.50;;
28431;SDS011;15664;51.302;7.744;2022-08-21T13:06:07;6.57;;;1.60;;
28431;SDS011;15664;51.302;7.744;2022-08-21T13:08:35;3.83;;;1.60;;
28431;SDS011;15664;51.302;7.744;2022-08-21T13:11:02;4.53;;;1.70;;
28431;SDS011;15664;51.302;7.744;2022-08-21T13:13:28;8.18;;;1.90;;
28431;SDS011;15664;51.302;7.744;2022-08-21T13:16:04;5.60;;;1.87;;
28431;SDS011;15664;51.302;7.744;2022-08-21T13:18:31;4.45;;;1.60;;
28431;SDS011;15664;51.302;7.744;2022-08-21T13:21:13;4.75;;;1.70;;
28431;SDS011;15664;51.302;7.744;2022-08-21T13:23:39;3.50;;;1.10;;
28431;SDS011;15664;51.302;7.744;2022-08-21T13:26:14;5.83;;;1.60;;
28431;SDS011;15664;51.302;7.744;2022-08-21T13:28:40;3.78;;;1.17;;
28431;SDS011;15664;51.302;7.744;2022-08-21T13:31:06;3.67;;;1.30;;
28431;SDS011;15664;51.302;7.744;2022-08-21T13:33:32;3.22;;;1.42;;
28431;SDS011;15664;51.302;7.744;2022-08-21T13:38:27;3.50;;;1.40;;
28431;SDS011;15664;51.302;7.744;2022-08-21T13:40:55;2.72;;;1.20;;
28431;SDS011;15664;51.302;7.744;2022-08-21T13:43:22;3.90;;;1.63;;
28431;SDS011;15664;51.302;7.744;2022-08-21T13:45:52;3.80;;;1.30;;
28431;SDS011;15664;51.302;7.744;2022-08-21T13:48:18;2.95;;;1.30;;
28431;SDS011;15664;51.302;7.744;2022-08-21T13:50:44;3.72;;;1.40;;
28431;SDS011;15664;51.302;7.744;2022-08-21T13:53:23;4.57;;;1.08;;
28431;SDS011;15664;51.302;7.744;2022-08-21T13:55:52;3.47;;;1.08;;
28431;SDS011;15664;51.302;7.744;2022-08-21T13:58:28;4.53;;;1.20;;
28431;SDS011;15664;51.302;7.744;2022-08-21T14:00:54;2.90;;;1.27;;
28431;SDS011;15664;51.302;7.744;2022-08-21T14:03:26;2.85;;;1.17;;
28431;SDS011;15664;51.302;7.744;2022-08-21T14:05:51;3.15;;;1.40;;
28431;SDS011;15664;51.302;7.744;2022-08-21T14:10:49;3.03;;;1.10;;
28431;SDS011;15664;51.302;7.744;2022-08-21T14:15:47;3.83;;;1.10;;
28431;SDS011;15664;51.302;7.744;2022-08-21T14:18:18;3.07;;;1.20;;
28431;SDS011;15664;51.302;7.744;2022-08-21T14:20:44;3.72;;;1.13;;
28431;SDS011;15664;51.302;7.744;2022-08-21T14:23:10;5.55;;;1.40;;
28431;SDS011;15664;51.302;7.744;2022-08-21T14:25:43;3.88;;;1.20;;
28431;SDS011;15664;51.302;7.744;2022-08-21T14:30:54;3.83;;;1.40;;
28431;SDS011;15664;51.302;7.744;2022-08-21T14:33:27;3.15;;;1.33;;
28431;SDS011;15664;51.302;7.744;2022-08-21T14:35:52;3.23;;;1.27;;
28431;SDS011;15664;51.302;7.744;2022-08-21T14:38:19;3.67;;;1.37;;
28431;SDS011;15664;51.302;7.744;2022-08-21T14:40:46;7.65;;;1.52;;
28431;SDS011;15664;51.302;7.744;2022-08-21T14:43:12;4.50;;;1.40;;
28431;SDS011;15664;51.302;7.744;2022-08-21T14:45:37;5.50;;;1.50;;
28431;SDS011;15664;51.302;7.744;2022-08-21T14:48:05;4.55;;;1.50;;
28431;SDS011;15664;51.302;7.744;2022-08-21T14:50:33;4.50;;;1.50;;
28431;SDS011;15664;51.302;7.744;2022-08-21T14:52:58;4.22;;;1.50;;
28431;SDS011;15664;51.302;7.744;2022-08-21T14:55:23;3.27;;;1.53;;
28431;SDS011;15664;51.302;7.744;2022-08-21T14:57:49;5.17;;;1.30;;
28431;SDS011;15664;51.302;7.744;2022-08-21T15:00:17;3.60;;;1.30;;
28431;SDS011;15664;51.302;7.744;2022-08-21T15:02:43;5.30;;;1.73;;
28431;SDS011;15664;51.302;7.744;2022-08-21T15:05:08;4.45;;;1.52;;
28431;SDS011;15664;51.302;7.744;2022-08-21T15:07:33;3.73;;;1.70;;
28431;SDS011;15664;51.302;7.744;2022-08-21T15:09:59;2.77;;;1.30;;
28431;SDS011;15664;51.302;7.744;2022-08-21T15:12:24;4.63;;;1.50;;
28431;SDS011;15664;51.302;7.744;2022-08-21T15:14:49;3.93;;;1.50;;
28431;SDS011;15664;51.302;7.744;2022-08-21T15:17:15;4.53;;;1.42;;
28431;SDS011;15664;51.302;7.744;2022-08-21T15:19:40;4.35;;;1.50;;
28431;SDS011;15664;51.302;7.744;2022-08-21T15:22:06;2.83;;;1.20;;
28431;SDS011;15664;51.302;7.744;2022-08-21T15:24:31;3.33;;;1.30;;
28431;SDS011;15664;51.302;7.744;2022-08-21T15:26:57;4.53;;;1.40;;
28431;SDS011;15664;51.302;7.744;2022-08-21T15:29:23;2.25;;;1.25;;
28431;SDS011;15664;51.302;7.744;2022-08-21T15:31:56;1.83;;;1.00;;
28431;SDS011;15664;51.302;7.744;2022-08-21T15:34:21;3.00;;;1.23;;
28431;SDS011;15664;51.302;7.744;2022-08-21T15:36:47;2.55;;;1.33;;
28431;SDS011;15664;51.302;7.744;2022-08-21T15:39:12;3.07;;;1.27;;
28431;SDS011;15664;51.302;7.744;2022-08-21T15:41:37;2.53;;;1.00;;
28431;SDS011;15664;51.302;7.744;2022-08-21T15:44:03;1.80;;;1.13;;
28431;SDS011;15664;51.302;7.744;2022-08-21T15:46:28;3.63;;;1.37;;
28431;SDS011;15664;51.302;7.744;2022-08-21T15:48:53;2.90;;;1.20;;
28431;SDS011;15664;51.302;7.744;2022-08-21T15:51:18;2.13;;;1.13;;
28431;SDS011;15664;51.302;7.744;2022-08-21T15:53:44;1.80;;;1.00;;
28431;SDS011;15664;51.302;7.744;2022-08-21T15:56:24;2.50;;;1.10;;
28431;SDS011;15664;51.302;7.744;2022-08-21T15:58:50;4.05;;;1.33;;
28431;SDS011;15664;51.302;7.744;2022-08-21T16:01:15;4.72;;;1.23;;